MAPA DE AEROPUERTO

INFORMACIÓN METAR y TAF

METAR FOR LEJR
ADDS - METARS form results

(0449 UTC 10 August 2020)
Data provider http://aviationweather.gov/metar/data/
 
METAR text: LEJR 100430Z VRB01KT CAVOK 22/21 Q1011
Conditions at: LEJR (JEREZ (CIV/MIL) , ES) observed 0430 UTC 10 August 2020
Temperature: 22.0°C (72°F)
Dewpoint: 21.0°C (70°F) [RH = 94%]
Pressure (altimeter): 29.85 inches Hg (1011.0 mb)
Winds: variable direction winds at 1 MPH (1 knots; 0.5 m/s)
Visibility: 6 or more miles (10+ km)
Ceiling: ceiling and visibility are OK
Clouds: unknown
Weather: no significant weather observed at this time

METAR text: LEJR 100400Z 23003KT 190V250 CAVOK 23/21 Q1011
Conditions at: LEJR (JEREZ (CIV/MIL) , ES) observed 0400 UTC 10 August 2020
Temperature: 23.0°C (73°F)
Dewpoint: 21.0°C (70°F) [RH = 89%]
Pressure (altimeter): 29.85 inches Hg (1011.0 mb)
Winds: from the SW (230 degrees) at 3 MPH (3 knots; 1.5 m/s)
Visibility: 6 or more miles (10+ km)
Ceiling: ceiling and visibility are OK
Clouds: unknown
Weather: no significant weather observed at this time

Forecast for: LEJR (JEREZ (CIV/MIL) , ES)
Text: TAF LEJR 092300Z 1000/1024 20009KT CAVOK TX34/1016Z TN24/1006Z
Forecast period: 0000 UTC 10 August 2020 to 0000 UTC 11 August 2020
Forecast type: FROM: standard forecast or significant change
Winds: from the SSW (200 degrees) at 10 MPH (9 knots; 4.6 m/s)
Visibility: 6 or more miles (10+ km)
Ceiling: unknown
Clouds: missing
Weather: no significant weather forecast for this period